KCEU

Details ICAO KCEU (CEU)
Name Oconee Co Rgnl
Region United States
Timezone America/New_York (UTC-5.0)
Plans Departing 4
Arriving 14
Stats Elevation 892 ft / 272 m (AMSL)
Location 34.671918° -82.886816°
Runways 1
Magnetic Variation 6.300° W
Sunrise 2017-12-10 12:29:26 UTC / 2017-12-10 07:29:26 Local
Sunset 2017-12-10 22:22:23 UTC / 2017-12-10 17:22:23 Local
Advertisement - Login to hide

Runways

ID Width Length Bearing (true) Bearing (mag) Surface Threshold Offset Overrun Length
07 100 ft / 30 m 4,394 ft / 1,339 m 67.69° 73.99° Asphalt 0 ft / 0 m 0 ft / 0 m
25 100 ft / 30 m 4,394 ft / 1,339 m 247.70° 254.00° Asphalt 0 ft / 0 m 0 ft / 0 m

Map

Weather


0- 5 10 15 20 25 30 35+ Temperature / ° C

Clouds and Precipitation
Forecast for 2017-12-11 00:00 UTC. Updated an hour ago

Ground ~20,000 ft ~40,000 ft Winds

METAR

KCEU 102354Z AUTO 24005KT 10SM CLR 03/M04 A3016 RMK AO2 SLP218 T00331044 10078 20033 50002

TAF

Not found

Frequencies

Recorded 119.27 MHz ASOS
Approach 118.80 MHz GREER APP/DEP
Unicom 122.70 MHz CTAF/UNICOM
Warning: Do not use this data for real-world aviation or navigation. No guarantee of current accuracy is given.